createdAt,value
2022-09-15T00:01:30.675Z,0.90
2022-09-15T00:03:58.872Z,2.03
2022-09-15T00:06:26.922Z,2.93
2022-09-15T00:08:56.606Z,1.43
2022-09-15T00:11:27.743Z,1.00
2022-09-15T00:13:57.584Z,1.33
2022-09-15T00:16:28.257Z,2.00
2022-09-15T00:18:56.684Z,1.30
2022-09-15T00:21:30.434Z,2.23
2022-09-15T00:24:01.578Z,1.30
2022-09-15T00:26:31.594Z,2.20
2022-09-15T00:29:01.429Z,1.20
2022-09-15T00:31:32.250Z,1.33
2022-09-15T00:34:03.849Z,0.83
2022-09-15T00:36:32.543Z,2.73
2022-09-15T00:39:02.171Z,2.53
2022-09-15T00:41:31.125Z,1.13
2022-09-15T00:44:02.656Z,2.70
2022-09-15T00:46:39.049Z,1.67
2022-09-15T00:49:10.695Z,1.00
2022-09-15T00:51:48.744Z,1.80
2022-09-15T00:54:22.987Z,2.80
2022-09-15T00:56:56.035Z,3.07
2022-09-15T00:59:28.589Z,1.87
2022-09-15T01:02:03.076Z,1.27
2022-09-15T01:04:31.257Z,2.10
2022-09-15T01:07:04.508Z,0.97
2022-09-15T01:09:39.581Z,1.63
2022-09-15T01:12:08.585Z,2.83
2022-09-15T01:14:36.953Z,1.10
2022-09-15T01:17:16.923Z,4.07
2022-09-15T01:20:43.233Z,1.17
2022-09-15T01:23:58.504Z,3.43
2022-09-15T01:27:37.847Z,2.50
2022-09-15T01:30:08.632Z,1.90
2022-09-15T01:33:09.648Z,1.20
2022-09-15T01:36:04.533Z,1.90
2022-09-15T01:38:50.273Z,1.10
2022-09-15T01:41:25.347Z,2.17
2022-09-15T01:44:01.982Z,1.50
2022-09-15T01:46:35.754Z,1.40
2022-09-15T01:49:05.962Z,2.43
2022-09-15T01:51:36.755Z,4.37
2022-09-15T01:54:07.427Z,1.90
2022-09-15T01:56:37.518Z,1.33
2022-09-15T01:59:06.032Z,1.63
2022-09-15T02:01:43.790Z,1.90
2022-09-15T02:04:18.864Z,3.00
2022-09-15T02:06:56.379Z,2.00
2022-09-15T02:09:29.744Z,1.37
2022-09-15T02:12:08.748Z,3.20
2022-09-15T02:14:52.666Z,2.23
2022-09-15T02:17:23.004Z,3.67
2022-09-15T02:19:56.391Z,2.37
2022-09-15T02:22:27.787Z,2.13
2022-09-15T02:25:03.496Z,3.67
2022-09-15T02:27:37.660Z,1.77
2022-09-15T02:30:12.623Z,2.13
2022-09-15T02:32:48.272Z,1.53
2022-09-15T02:35:17.877Z,1.73
2022-09-15T02:37:46.644Z,2.00
2022-09-15T02:40:14.904Z,1.23
2022-09-15T02:42:53.659Z,0.90
2022-09-15T02:45:22.179Z,1.53
2022-09-15T02:47:51.717Z,2.63
2022-09-15T02:50:20.597Z,3.67
2022-09-15T02:52:48.586Z,2.93
2022-09-15T02:55:16.832Z,0.87
2022-09-15T02:57:44.828Z,1.27
2022-09-15T03:00:15.854Z,1.53
2022-09-15T03:02:46.485Z,3.73
2022-09-15T03:05:18.522Z,1.10
2022-09-15T03:07:46.536Z,1.10
2022-09-15T03:10:16.109Z,2.13
2022-09-15T03:12:47.531Z,0.70
2022-09-15T03:15:17.564Z,0.60
2022-09-15T03:17:47.419Z,2.77
2022-09-15T03:20:20.043Z,0.83
2022-09-15T03:22:48.403Z,1.70
2022-09-15T03:25:17.438Z,1.83
2022-09-15T03:27:45.511Z,1.47
2022-09-15T03:30:16.875Z,0.87
2022-09-15T03:32:44.869Z,3.00
2022-09-15T03:35:12.873Z,1.60
2022-09-15T03:37:42.233Z,2.13
2022-09-15T03:40:11.415Z,0.63
2022-09-15T03:42:39.531Z,0.90
2022-09-15T03:45:08.777Z,2.37
2022-09-15T03:47:36.795Z,0.80
2022-09-15T03:50:06.718Z,1.53
2022-09-15T03:52:34.670Z,1.20
2022-09-15T03:55:04.102Z,6.13
2022-09-15T03:57:32.219Z,1.43
2022-09-15T04:00:00.255Z,1.97
2022-09-15T04:02:28.258Z,1.50
2022-09-15T04:04:56.238Z,1.10
2022-09-15T04:07:25.178Z,2.40
2022-09-15T04:09:53.267Z,1.47
2022-09-15T04:12:22.579Z,1.13
2022-09-15T04:14:50.524Z,1.13
2022-09-15T04:17:18.465Z,0.93
2022-09-15T04:19:46.460Z,1.07
2022-09-15T04:22:17.805Z,1.30
2022-09-15T04:24:47.970Z,1.50
2022-09-15T04:27:16.693Z,1.13
2022-09-15T04:29:46.467Z,1.00
2022-09-15T04:32:14.465Z,1.77
2022-09-15T04:34:42.407Z,1.77
2022-09-15T04:37:10.856Z,1.27
2022-09-15T04:39:38.854Z,2.27
2022-09-15T04:42:07.750Z,3.23
2022-09-15T04:44:36.054Z,2.37
2022-09-15T04:47:06.196Z,1.27
2022-09-15T04:49:34.455Z,0.70
2022-09-15T04:52:06.617Z,1.67
2022-09-15T04:54:37.052Z,2.20
2022-09-15T04:57:05.416Z,3.83
2022-09-15T04:59:33.664Z,2.07
2022-09-15T05:02:01.702Z,2.23
2022-09-15T05:04:31.194Z,1.13
2022-09-15T05:06:59.214Z,1.33
2022-09-15T05:09:29.460Z,4.30
2022-09-15T05:11:57.666Z,2.00
2022-09-15T05:14:25.695Z,0.87
2022-09-15T05:16:53.722Z,1.90
2022-09-15T05:19:21.809Z,1.20
2022-09-15T05:21:51.207Z,1.27
2022-09-15T05:24:19.255Z,1.47
2022-09-15T05:26:47.193Z,4.73
2022-09-15T05:29:15.185Z,1.80
2022-09-15T05:31:43.275Z,2.20
2022-09-15T05:34:11.661Z,1.70
2022-09-15T05:36:39.698Z,1.30
2022-09-15T05:39:08.997Z,2.67
2022-09-15T05:41:36.963Z,1.57
2022-09-15T05:44:04.936Z,0.73
2022-09-15T05:46:33.008Z,1.70
2022-09-15T05:49:25.208Z,2.50
2022-09-15T05:51:54.083Z,1.47
2022-09-15T05:54:23.466Z,1.13
2022-09-15T05:56:51.512Z,1.20
2022-09-15T05:59:19.739Z,1.53
2022-09-15T06:01:48.242Z,1.40
2022-09-15T06:04:16.227Z,1.37
2022-09-15T06:06:44.210Z,1.43
2022-09-15T06:09:12.187Z,1.27
2022-09-15T06:11:41.498Z,0.80
2022-09-15T06:14:09.702Z,1.93
2022-09-15T06:16:38.025Z,1.20
2022-09-15T06:19:06.407Z,1.00
2022-09-15T06:21:34.725Z,1.07
2022-09-15T06:24:06.845Z,0.83
2022-09-15T06:26:35.779Z,0.70
2022-09-15T06:29:06.331Z,1.50
2022-09-15T06:31:35.701Z,3.90
2022-09-15T06:34:05.417Z,3.37
2022-09-15T06:36:34.099Z,2.10
2022-09-15T06:39:02.770Z,4.20
2022-09-15T06:41:52.599Z,2.17
2022-09-15T06:44:21.194Z,2.40
2022-09-15T06:46:49.803Z,4.53
2022-09-15T06:49:18.020Z,1.33
2022-09-15T06:51:46.398Z,1.33
2022-09-15T06:54:16.337Z,0.67
2022-09-15T06:56:45.053Z,1.13
2022-09-15T06:59:15.507Z,1.03
2022-09-15T07:01:45.001Z,2.97
2022-09-15T07:04:12.941Z,2.80
2022-09-15T07:06:41.386Z,1.73
2022-09-15T07:09:09.530Z,1.07
2022-09-15T07:11:37.499Z,1.87
2022-09-15T07:14:05.499Z,1.20
2022-09-15T07:16:34.004Z,0.80
2022-09-15T07:19:03.647Z,0.77
2022-09-15T07:21:31.645Z,2.27
2022-09-15T07:24:02.696Z,0.87
2022-09-15T07:26:33.801Z,0.60
2022-09-15T07:29:05.248Z,2.80
2022-09-15T07:31:36.130Z,4.13
2022-09-15T07:34:06.203Z,1.13
2022-09-15T07:36:34.585Z,1.50
2022-09-15T07:39:06.511Z,1.73
2022-09-15T07:41:35.086Z,3.17
2022-09-15T07:44:04.743Z,3.03
2022-09-15T07:46:34.367Z,3.60
2022-09-15T07:49:03.744Z,1.80
2022-09-15T07:51:33.098Z,2.37
2022-09-15T07:54:01.658Z,0.77
2022-09-15T07:56:29.857Z,0.70
2022-09-15T07:58:58.405Z,0.97
2022-09-15T08:01:27.056Z,1.63
2022-09-15T08:03:55.223Z,2.00
2022-09-15T08:06:26.469Z,0.90
2022-09-15T08:09:00.348Z,2.07
2022-09-15T08:11:31.556Z,0.80
2022-09-15T08:14:02.997Z,1.70
2022-09-15T08:16:31.496Z,0.50
2022-09-15T08:19:01.176Z,0.63
2022-09-15T08:21:29.543Z,0.97
2022-09-15T08:24:01.166Z,0.60
2022-09-15T08:26:30.866Z,0.57
2022-09-15T08:28:59.389Z,1.03
2022-09-15T08:31:27.529Z,1.00
2022-09-15T08:33:56.898Z,0.87
2022-09-15T08:36:28.273Z,1.80
2022-09-15T08:38:57.873Z,1.00
2022-09-15T08:41:30.614Z,0.73
2022-09-15T08:44:05.659Z,2.23
2022-09-15T08:46:41.411Z,0.57
2022-09-15T08:49:30.550Z,1.07
2022-09-15T08:52:10.954Z,1.80
2022-09-15T08:54:40.571Z,0.67
2022-09-15T08:57:17.822Z,0.50
2022-09-15T08:59:45.836Z,0.67
2022-09-15T09:03:05.662Z,0.40
2022-09-15T09:05:53.627Z,0.73
2022-09-15T09:09:04.898Z,2.57
2022-09-15T09:11:54.314Z,1.43
2022-09-15T09:14:34.671Z,1.60
2022-09-15T09:17:25.011Z,1.20
2022-09-15T09:20:31.841Z,3.50
2022-09-15T09:23:03.463Z,0.60
2022-09-15T09:25:31.485Z,1.53
2022-09-15T09:28:04.513Z,0.60
2022-09-15T09:30:35.909Z,0.80
2022-09-15T09:33:23.015Z,0.70
2022-09-15T09:35:52.911Z,0.77
2022-09-15T09:38:25.190Z,1.03
2022-09-15T09:40:55.740Z,0.50
2022-09-15T09:43:30.070Z,0.50
2022-09-15T09:45:59.211Z,0.40
2022-09-15T09:48:29.835Z,0.67
2022-09-15T09:50:58.199Z,0.40
2022-09-15T09:53:30.978Z,0.20
2022-09-15T09:56:18.932Z,0.83
2022-09-15T09:58:48.655Z,2.23
2022-09-15T10:01:19.912Z,0.40
2022-09-15T10:03:48.369Z,0.60
2022-09-15T10:06:20.627Z,0.10
2022-09-15T10:08:58.342Z,0.33
2022-09-15T10:11:43.137Z,2.03
2022-09-15T10:14:22.829Z,0.10
2022-09-15T10:17:02.424Z,0.37
2022-09-15T10:19:34.222Z,1.20
2022-09-15T10:22:03.992Z,0.43
2022-09-15T10:24:37.307Z,0.47
2022-09-15T10:27:26.312Z,1.70
2022-09-15T10:29:57.036Z,0.73
2022-09-15T10:32:28.950Z,1.20
2022-09-15T10:35:07.366Z,0.73
2022-09-15T10:37:49.023Z,0.60
2022-09-15T10:40:34.531Z,0.93
2022-09-15T10:43:25.624Z,0.57
2022-09-15T10:46:04.855Z,1.00
2022-09-15T10:48:44.881Z,0.77
2022-09-15T10:51:33.382Z,0.87
2022-09-15T10:54:23.035Z,1.07
2022-09-15T10:56:58.859Z,1.27
2022-09-15T10:59:44.200Z,2.77
2022-09-15T11:02:56.449Z,2.63
2022-09-15T11:05:37.161Z,1.80
2022-09-15T11:08:33.080Z,1.43
2022-09-15T11:11:13.671Z,3.90
2022-09-15T11:13:56.481Z,4.10
2022-09-15T11:16:41.564Z,1.97
2022-09-15T11:19:34.159Z,6.40
2022-09-15T11:22:08.208Z,2.00
2022-09-15T11:24:45.273Z,2.10
2022-09-15T11:27:21.947Z,3.10
2022-09-15T11:30:05.318Z,2.17
2022-09-15T11:32:41.684Z,1.93
2022-09-15T11:35:43.341Z,2.23
2022-09-15T11:38:24.192Z,2.70
2022-09-15T11:40:58.762Z,3.80
2022-09-15T11:43:35.527Z,3.10
2022-09-15T11:46:12.387Z,4.53
2022-09-15T11:48:44.939Z,5.03
2022-09-15T11:51:17.587Z,2.93
2022-09-15T11:53:52.617Z,2.57
2022-09-15T11:56:28.192Z,4.13
2022-09-15T11:59:08.770Z,4.37
2022-09-15T12:01:48.256Z,2.60
2022-09-15T12:04:23.026Z,2.53
2022-09-15T12:07:01.305Z,2.20
2022-09-15T12:09:29.598Z,2.93
2022-09-15T12:12:02.731Z,3.60
2022-09-15T12:14:36.942Z,4.37
2022-09-15T12:17:09.782Z,3.53
2022-09-15T12:19:54.495Z,2.83
2022-09-15T12:22:29.494Z,4.87
2022-09-15T12:25:04.455Z,3.33
2022-09-15T12:27:32.514Z,3.27
2022-09-15T12:30:02.014Z,3.53
2022-09-15T12:32:31.963Z,3.07
2022-09-15T12:35:12.810Z,5.03
2022-09-15T12:37:47.207Z,5.57
2022-09-15T12:40:37.684Z,4.73
2022-09-15T12:43:20.620Z,5.50
2022-09-15T12:45:57.849Z,8.10
2022-09-15T12:48:30.077Z,4.07
2022-09-15T12:51:02.519Z,4.67
2022-09-15T12:56:11.639Z,3.83
2022-09-15T12:58:45.748Z,6.30
2022-09-15T13:01:49.505Z,3.63
2022-09-15T13:04:55.509Z,6.93
2022-09-15T13:07:53.724Z,4.47
2022-09-15T13:10:42.219Z,4.83
2022-09-15T13:13:33.333Z,3.77
2022-09-15T13:16:03.390Z,3.40
2022-09-15T13:18:33.156Z,4.27
2022-09-15T13:21:08.632Z,5.67
2022-09-15T13:23:42.608Z,3.77
2022-09-15T13:26:22.552Z,5.17
2022-09-15T13:28:55.625Z,4.73
2022-09-15T13:31:39.816Z,2.87
2022-09-15T13:35:09.034Z,3.57
2022-09-15T13:38:29.138Z,4.23
2022-09-15T13:41:42.801Z,5.67
2022-09-15T13:44:56.029Z,5.63
2022-09-15T13:47:46.183Z,6.03
2022-09-15T13:50:21.369Z,7.17
2022-09-15T13:53:27.068Z,7.70
2022-09-15T13:55:55.573Z,8.40
2022-09-15T14:01:17.050Z,6.40
2022-09-15T14:03:50.274Z,5.93
2022-09-15T14:06:22.270Z,6.60
2022-09-15T14:08:54.148Z,6.50
2022-09-15T14:11:30.846Z,7.03
2022-09-15T14:14:01.428Z,6.93
2022-09-15T14:16:36.258Z,8.07
2022-09-15T14:19:23.959Z,7.77
2022-09-15T14:21:56.207Z,7.63
2022-09-15T14:24:30.511Z,6.33
2022-09-15T14:27:03.324Z,7.20
2022-09-15T14:29:33.023Z,8.07
2022-09-15T14:32:03.914Z,5.77
2022-09-15T14:34:36.580Z,6.37
2022-09-15T14:37:08.808Z,5.80
2022-09-15T14:39:37.707Z,6.93
2022-09-15T14:42:22.826Z,4.70
2022-09-15T14:47:43.704Z,4.77
2022-09-15T14:50:17.366Z,5.80
2022-09-15T14:52:49.403Z,5.13
2022-09-15T14:55:23.633Z,5.50
2022-09-15T14:58:02.614Z,3.80
2022-09-15T15:00:38.330Z,3.77
2022-09-15T15:03:22.219Z,6.00
2022-09-15T15:06:02.654Z,4.40
2022-09-15T15:08:37.902Z,6.03
2022-09-15T15:11:10.663Z,3.50
2022-09-15T15:13:42.202Z,5.43
2022-09-15T15:16:21.487Z,3.97
2022-09-15T15:18:51.242Z,3.77
2022-09-15T15:21:41.618Z,5.33
2022-09-15T15:24:18.378Z,7.73
2022-09-15T15:26:47.699Z,3.80
2022-09-15T15:29:43.311Z,4.70
2022-09-15T15:32:15.985Z,3.73
2022-09-15T15:34:51.991Z,3.40
2022-09-15T15:37:28.011Z,5.53
2022-09-15T15:39:57.276Z,7.10
2022-09-15T15:42:28.440Z,4.10
2022-09-15T15:45:05.186Z,2.70
2022-09-15T15:47:37.831Z,4.13
2022-09-15T15:50:14.214Z,4.30
2022-09-15T15:52:43.624Z,4.00
2022-09-15T15:55:15.859Z,5.47
2022-09-15T15:57:45.577Z,2.70
2022-09-15T16:00:22.091Z,3.70
2022-09-15T16:02:53.118Z,3.30
2022-09-15T16:05:26.208Z,5.60
2022-09-15T16:07:57.072Z,3.53
2022-09-15T16:10:29.935Z,3.23
2022-09-15T16:12:58.048Z,4.07
2022-09-15T16:15:26.048Z,3.67
2022-09-15T16:17:55.393Z,3.27
2022-09-15T16:20:25.071Z,4.20
2022-09-15T16:22:53.297Z,3.87
2022-09-15T16:25:31.834Z,3.53
2022-09-15T16:28:00.493Z,3.87
2022-09-15T16:30:28.811Z,4.60
2022-09-15T16:32:58.534Z,2.90
2022-09-15T16:35:35.994Z,3.43
2022-09-15T16:38:04.409Z,6.37
2022-09-15T16:40:32.458Z,4.07
2022-09-15T16:43:00.850Z,3.90
2022-09-15T16:45:36.523Z,4.43
2022-09-15T16:48:09.759Z,3.23
2022-09-15T16:50:40.163Z,3.13
2022-09-15T16:53:15.752Z,3.47
2022-09-15T16:55:47.164Z,5.00
2022-09-15T16:58:17.915Z,4.07
2022-09-15T17:00:48.213Z,6.70
2022-09-15T17:03:21.259Z,4.37
2022-09-15T17:05:51.133Z,5.00
2022-09-15T17:08:21.330Z,5.53
2022-09-15T17:10:50.258Z,4.50
2022-09-15T17:13:23.963Z,5.77
2022-09-15T17:15:54.966Z,3.80
2022-09-15T17:18:24.926Z,3.03
2022-09-15T17:20:53.303Z,3.23
2022-09-15T17:23:24.550Z,5.00
2022-09-15T17:25:57.375Z,3.70
2022-09-15T17:28:28.761Z,3.80
2022-09-15T17:31:00.330Z,4.07
2022-09-15T17:33:32.400Z,7.20
2022-09-15T17:36:01.327Z,4.57
2022-09-15T17:38:29.316Z,3.20
2022-09-15T17:40:57.286Z,3.30
2022-09-15T17:43:27.639Z,4.47
2022-09-15T17:45:56.219Z,5.07
2022-09-15T17:48:25.354Z,2.80
2022-09-15T17:50:54.823Z,4.33
2022-09-15T17:53:26.559Z,5.60
2022-09-15T17:55:56.328Z,5.63
2022-09-15T17:58:26.491Z,4.13
2022-09-15T18:00:55.335Z,6.57
2022-09-15T18:03:27.609Z,4.43
2022-09-15T18:05:59.148Z,3.60
2022-09-15T18:08:28.742Z,6.83
2022-09-15T18:10:57.175Z,3.57
2022-09-15T18:13:27.875Z,3.83
2022-09-15T18:15:56.567Z,4.30
2022-09-15T18:18:27.005Z,4.00
2022-09-15T18:20:57.825Z,4.33
2022-09-15T18:23:29.646Z,4.33
2022-09-15T18:25:58.235Z,4.03
2022-09-15T18:28:26.287Z,4.70
2022-09-15T18:30:54.326Z,5.27
2022-09-15T18:33:25.182Z,3.67
2022-09-15T18:35:56.636Z,4.07
2022-09-15T18:38:25.826Z,3.17
2022-09-15T18:40:56.123Z,5.27
2022-09-15T18:43:26.817Z,4.07
2022-09-15T18:45:59.242Z,3.43
2022-09-15T18:48:27.364Z,6.87
2022-09-15T18:50:57.186Z,5.30
2022-09-15T18:53:25.429Z,3.90
2022-09-15T18:55:53.407Z,3.00
2022-09-15T18:58:22.383Z,4.27
2022-09-15T19:00:50.483Z,4.03
2022-09-15T19:03:18.563Z,5.87
2022-09-15T19:05:46.569Z,4.27
2022-09-15T19:08:15.881Z,4.07
2022-09-15T19:10:44.179Z,3.70
2022-09-15T19:13:14.057Z,5.10
2022-09-15T19:15:43.680Z,4.43
2022-09-15T19:18:11.769Z,3.30
2022-09-15T19:20:40.138Z,4.00
2022-09-15T19:23:09.332Z,3.20
2022-09-15T19:25:41.323Z,5.93
2022-09-15T19:28:09.523Z,3.93
2022-09-15T19:30:37.626Z,3.80
2022-09-15T19:33:05.872Z,6.07
2022-09-15T19:35:33.866Z,3.90
2022-09-15T19:38:01.861Z,3.50
2022-09-15T19:40:29.894Z,5.17
2022-09-15T19:42:59.258Z,3.97
2022-09-15T19:45:27.238Z,5.57
2022-09-15T19:47:55.291Z,4.07
2022-09-15T19:50:23.592Z,3.70
2022-09-15T19:52:53.412Z,8.07
2022-09-15T19:55:23.405Z,6.63
2022-09-15T19:57:51.538Z,3.50
2022-09-15T20:00:21.416Z,5.63
2022-09-15T20:02:49.810Z,6.60
2022-09-15T20:05:18.131Z,6.27
2022-09-15T20:07:48.000Z,4.40
2022-09-15T20:10:16.717Z,4.50
2022-09-15T20:12:44.678Z,7.17
2022-09-15T20:15:12.707Z,4.20
2022-09-15T20:17:42.288Z,6.90
2022-09-15T20:20:12.377Z,4.53
2022-09-15T20:22:40.414Z,5.13
2022-09-15T20:25:09.152Z,4.77
2022-09-15T20:27:37.115Z,5.53
2022-09-15T20:30:07.009Z,4.20
2022-09-15T20:32:34.994Z,5.27
2022-09-15T20:35:04.871Z,3.97
2022-09-15T20:37:37.433Z,8.70
2022-09-15T20:40:07.815Z,4.47
2022-09-15T20:42:36.093Z,10.57
2022-09-15T20:45:05.355Z,4.23
2022-09-15T20:47:33.433Z,6.37
2022-09-15T20:50:01.398Z,9.57
2022-09-15T20:52:37.415Z,6.10
2022-09-15T20:55:07.216Z,4.87
2022-09-15T20:57:35.316Z,4.77
2022-09-15T21:00:06.044Z,5.00
2022-09-15T21:02:34.134Z,4.50
2022-09-15T21:05:02.172Z,6.27
2022-09-15T21:07:30.175Z,4.90
2022-09-15T21:09:59.455Z,5.90
2022-09-15T21:12:29.601Z,4.77
2022-09-15T21:14:57.836Z,6.43
2022-09-15T21:17:26.116Z,3.60
2022-09-15T21:19:54.160Z,7.20
2022-09-15T21:22:22.125Z,5.97
2022-09-15T21:24:50.471Z,4.47
2022-09-15T21:27:29.975Z,5.17
2022-09-15T21:29:58.330Z,4.60
2022-09-15T21:32:26.312Z,6.10
2022-09-15T21:34:55.778Z,5.20
2022-09-15T21:37:23.940Z,5.43
2022-09-15T21:39:51.950Z,6.60
2022-09-15T21:42:22.396Z,7.97
2022-09-15T21:44:50.807Z,3.83
2022-09-15T21:47:18.970Z,4.90
2022-09-15T21:49:46.942Z,4.80
2022-09-15T21:52:15.014Z,8.37
2022-09-15T21:54:43.324Z,6.43
2022-09-15T21:57:11.737Z,5.07
2022-09-15T21:59:41.783Z,4.67
2022-09-15T22:02:11.546Z,5.67
2022-09-15T22:04:39.849Z,5.13
2022-09-15T22:07:09.743Z,3.73
2022-09-15T22:09:38.628Z,5.43
2022-09-15T22:12:07.283Z,6.30
2022-09-15T22:14:35.419Z,5.40
2022-09-15T22:17:05.624Z,5.27
2022-09-15T22:19:33.701Z,4.77
2022-09-15T22:22:02.083Z,5.17
2022-09-15T22:24:30.162Z,5.17
2022-09-15T22:26:58.159Z,4.60
2022-09-15T22:29:26.160Z,4.70
2022-09-15T22:31:54.379Z,7.17
2022-09-15T22:34:24.170Z,3.57
2022-09-15T22:36:52.119Z,4.20
2022-09-15T22:39:20.104Z,6.33
2022-09-15T22:41:48.053Z,8.63
2022-09-15T22:44:21.352Z,6.57
2022-09-15T22:46:51.213Z,4.00
2022-09-15T22:49:19.752Z,7.27
2022-09-15T22:51:49.061Z,5.77
2022-09-15T22:54:17.267Z,4.93
2022-09-15T22:56:46.883Z,5.13
2022-09-15T22:59:14.865Z,5.73
2022-09-15T23:01:42.897Z,4.93
2022-09-15T23:04:11.005Z,4.33
2022-09-15T23:06:39.014Z,6.07
2022-09-15T23:09:11.242Z,6.30
2022-09-15T23:11:40.693Z,6.37
2022-09-15T23:14:13.107Z,5.83
2022-09-15T23:16:41.786Z,5.20
2022-09-15T23:19:12.234Z,4.43
2022-09-15T23:21:40.853Z,5.50
2022-09-15T23:24:12.214Z,9.57
2022-09-15T23:26:41.327Z,7.77
2022-09-15T23:29:10.000Z,7.90
2022-09-15T23:31:38.281Z,5.73
2022-09-15T23:34:06.334Z,6.30
2022-09-15T23:36:34.302Z,6.90
2022-09-15T23:39:02.384Z,7.70
2022-09-15T23:41:31.793Z,8.27
2022-09-15T23:43:59.889Z,8.17
2022-09-15T23:46:27.984Z,9.93
2022-09-15T23:48:56.015Z,8.10
2022-09-15T23:51:24.051Z,7.30
2022-09-15T23:53:52.126Z,8.23
2022-09-15T23:56:20.150Z,8.17
2022-09-15T23:58:49.486Z,8.00
